createdAt,value
2023-03-03T00:00:09.434Z,17.98
2023-03-03T00:02:20.784Z,17.90
2023-03-03T00:04:25.571Z,18.50
2023-03-03T00:06:32.981Z,19.65
2023-03-03T00:08:40.562Z,18.15
2023-03-03T00:10:45.447Z,18.35
2023-03-03T00:12:51.900Z,18.08
2023-03-03T00:14:57.272Z,18.73
2023-03-03T00:17:04.646Z,17.95
2023-03-03T00:19:17.337Z,17.30
2023-03-03T00:21:33.892Z,17.20
2023-03-03T00:23:43.610Z,17.85
2023-03-03T00:25:52.611Z,16.15
2023-03-03T00:27:57.562Z,16.30
2023-03-03T00:30:03.742Z,17.25
2023-03-03T00:32:27.850Z,17.20
2023-03-03T00:34:33.371Z,17.38
2023-03-03T00:36:40.853Z,17.65
2023-03-03T00:38:49.120Z,16.42
2023-03-03T00:40:54.263Z,15.90
2023-03-03T00:47:33.441Z,16.30
2023-03-03T00:49:38.211Z,17.35
2023-03-03T00:51:46.824Z,15.90
2023-03-03T00:53:54.191Z,18.65
2023-03-03T00:55:59.524Z,18.63
2023-03-03T00:58:04.418Z,17.52
2023-03-03T01:00:17.843Z,18.65
2023-03-03T01:02:23.017Z,19.45
2023-03-03T01:04:27.932Z,18.85
2023-03-03T01:06:32.704Z,16.90
2023-03-03T01:08:37.621Z,16.92
2023-03-03T01:10:51.086Z,16.77
2023-03-03T01:12:56.122Z,16.58
2023-03-03T01:15:00.956Z,17.42
2023-03-03T01:17:06.507Z,16.85
2023-03-03T01:19:12.393Z,16.83
2023-03-03T01:21:17.237Z,17.77
2023-03-03T01:23:22.326Z,16.95
2023-03-03T01:27:34.517Z,17.92
2023-03-03T01:29:39.362Z,18.05
2023-03-03T01:31:44.261Z,17.50
2023-03-03T01:33:49.019Z,18.85
2023-03-03T01:35:53.940Z,17.80
2023-03-03T01:37:58.814Z,17.45
2023-03-03T01:40:03.587Z,17.45
2023-03-03T01:42:09.183Z,17.27
2023-03-03T01:44:18.960Z,18.17
2023-03-03T01:46:49.623Z,18.35
2023-03-03T01:49:03.071Z,18.00
2023-03-03T01:51:17.641Z,17.70
2023-03-03T01:53:30.161Z,17.35
2023-03-03T01:55:39.426Z,17.75
2023-03-03T01:57:48.874Z,16.83
2023-03-03T01:59:58.269Z,16.75
2023-03-03T02:02:03.198Z,16.80
2023-03-03T02:04:08.358Z,17.55
2023-03-03T02:06:17.265Z,16.88
2023-03-03T02:08:28.508Z,17.55
2023-03-03T02:10:34.379Z,16.20
2023-03-03T02:12:43.458Z,17.77
2023-03-03T02:14:48.340Z,17.27
2023-03-03T02:16:55.761Z,16.65
2023-03-03T02:19:00.973Z,16.65
2023-03-03T02:21:10.367Z,17.00
2023-03-03T02:23:23.703Z,18.45
2023-03-03T02:25:37.200Z,16.42
2023-03-03T02:27:44.663Z,16.45
2023-03-03T02:29:50.403Z,16.58
2023-03-03T02:31:55.423Z,16.77
2023-03-03T02:34:01.642Z,16.48
2023-03-03T02:36:06.717Z,18.00
2023-03-03T02:40:28.354Z,16.73
2023-03-03T02:42:34.884Z,16.25
2023-03-03T02:44:42.469Z,18.85
2023-03-03T02:46:49.493Z,17.52
2023-03-03T02:48:55.093Z,17.00
2023-03-03T02:50:59.999Z,17.10
2023-03-03T02:53:04.751Z,17.65
2023-03-03T02:55:11.372Z,16.42
2023-03-03T02:57:17.168Z,18.25
2023-03-03T02:59:22.366Z,16.65
2023-03-03T03:01:37.052Z,17.27
2023-03-03T03:03:44.161Z,16.80
2023-03-03T03:05:49.087Z,16.67
2023-03-03T03:07:56.826Z,20.10
2023-03-03T03:10:01.625Z,18.63
2023-03-03T03:12:09.567Z,19.48
2023-03-03T03:14:16.324Z,19.02
2023-03-03T03:16:22.213Z,17.73
2023-03-03T03:18:30.373Z,17.38
2023-03-03T03:20:40.199Z,17.63
2023-03-03T03:22:46.294Z,16.90
2023-03-03T03:24:51.236Z,17.50
2023-03-03T03:26:56.080Z,17.85
2023-03-03T03:29:02.681Z,18.48
2023-03-03T03:33:14.018Z,16.95
2023-03-03T03:35:21.734Z,17.52
2023-03-03T03:37:26.655Z,18.50
2023-03-03T03:39:31.553Z,18.55
2023-03-03T03:41:36.418Z,19.00
2023-03-03T03:43:41.320Z,17.90
2023-03-03T03:45:47.426Z,17.17
2023-03-03T03:47:53.299Z,18.33
2023-03-03T03:49:58.121Z,18.92
2023-03-03T03:52:06.029Z,17.35
2023-03-03T03:54:12.292Z,19.90
2023-03-03T03:56:17.864Z,17.27
2023-03-03T03:58:25.721Z,17.60
2023-03-03T04:00:35.945Z,19.75
2023-03-03T04:02:41.013Z,20.10
2023-03-03T04:04:49.862Z,18.90
2023-03-03T04:09:02.189Z,16.63
2023-03-03T04:11:08.347Z,17.02
2023-03-03T04:13:13.152Z,17.13
2023-03-03T04:17:27.097Z,17.00
2023-03-03T04:19:31.966Z,20.35
2023-03-03T04:21:36.722Z,19.75
2023-03-03T04:25:49.759Z,18.00
2023-03-03T04:27:54.959Z,17.88
2023-03-03T04:30:01.193Z,17.25
2023-03-03T04:32:06.085Z,20.15
2023-03-03T04:34:11.667Z,18.02
2023-03-03T04:36:17.502Z,18.40
2023-03-03T04:40:28.941Z,17.48
2023-03-03T04:44:42.004Z,19.45
2023-03-03T04:46:46.992Z,18.65
2023-03-03T04:48:51.916Z,17.67
2023-03-03T04:50:56.821Z,18.75
2023-03-03T04:53:01.853Z,17.77
2023-03-03T04:55:10.275Z,19.95
2023-03-03T04:57:16.031Z,18.83
2023-03-03T05:01:28.564Z,18.20
2023-03-03T05:03:34.320Z,19.55
2023-03-03T05:05:39.167Z,21.42
2023-03-03T05:07:44.000Z,20.45
2023-03-03T05:09:48.773Z,20.15
2023-03-03T05:11:53.761Z,21.83
2023-03-03T05:13:58.620Z,20.02
2023-03-03T05:16:06.364Z,19.73
2023-03-03T05:18:11.771Z,20.83
2023-03-03T05:20:16.852Z,20.25
2023-03-03T05:22:21.620Z,19.95
2023-03-03T05:24:26.602Z,21.05
2023-03-03T05:26:34.418Z,21.92
2023-03-03T05:28:39.306Z,20.20
2023-03-03T05:30:44.308Z,21.40
2023-03-03T05:32:51.697Z,20.95
2023-03-03T05:34:56.623Z,21.23
2023-03-03T05:37:01.411Z,20.83
2023-03-03T05:39:06.298Z,23.70
2023-03-03T05:41:11.202Z,23.80
2023-03-03T05:43:16.357Z,22.98
2023-03-03T05:45:24.412Z,21.33
2023-03-03T05:47:29.208Z,21.80
2023-03-03T05:49:36.569Z,21.83
2023-03-03T05:51:41.822Z,22.35
2023-03-03T05:55:51.069Z,22.13
2023-03-03T05:57:55.868Z,23.48
2023-03-03T06:00:00.791Z,21.55
2023-03-03T06:02:05.663Z,22.92
2023-03-03T06:04:10.658Z,23.75
2023-03-03T06:06:19.368Z,23.45
2023-03-03T06:08:24.684Z,23.15
2023-03-03T06:10:29.492Z,22.92
2023-03-03T06:12:39.400Z,24.27
2023-03-03T06:14:44.295Z,23.60
2023-03-03T06:16:49.495Z,22.80
2023-03-03T06:18:54.399Z,26.73
2023-03-03T06:20:59.345Z,25.48
2023-03-03T06:23:06.915Z,28.27
2023-03-03T06:25:13.536Z,24.40
2023-03-03T06:27:21.231Z,25.67
2023-03-03T06:29:26.108Z,24.95
2023-03-03T06:31:32.349Z,24.13
2023-03-03T06:33:38.467Z,25.55
2023-03-03T06:35:43.236Z,24.42
2023-03-03T06:37:51.341Z,25.77
2023-03-03T06:39:58.865Z,26.25
2023-03-03T06:42:03.705Z,26.52
2023-03-03T06:44:08.496Z,29.42
2023-03-03T06:46:13.329Z,27.25
2023-03-03T06:48:20.952Z,28.15
2023-03-03T06:50:25.803Z,28.38
2023-03-03T06:52:31.159Z,28.98
2023-03-03T06:54:38.941Z,27.73
2023-03-03T06:56:48.496Z,31.35
2023-03-03T06:58:56.144Z,29.60
2023-03-03T07:01:03.004Z,28.10
2023-03-03T07:03:18.064Z,28.95
2023-03-03T07:05:23.119Z,29.13
2023-03-03T07:09:34.379Z,27.10
2023-03-03T07:13:50.906Z,26.50
2023-03-03T07:15:57.217Z,28.10
2023-03-03T07:18:02.859Z,29.35
2023-03-03T07:20:20.694Z,25.42
2023-03-03T07:22:30.298Z,26.38
2023-03-03T07:24:35.852Z,30.30
2023-03-03T07:26:40.734Z,27.88
2023-03-03T07:28:57.685Z,29.42
2023-03-03T07:31:02.836Z,27.70
2023-03-03T07:35:46.411Z,28.08
2023-03-03T07:37:51.450Z,27.40
2023-03-03T07:39:57.127Z,31.17
2023-03-03T07:42:17.298Z,29.60
2023-03-03T07:44:34.567Z,29.85
2023-03-03T07:46:44.447Z,27.90
2023-03-03T07:48:49.321Z,29.20
2023-03-03T07:50:54.585Z,27.05
2023-03-03T07:55:22.043Z,27.73
2023-03-03T07:57:30.110Z,28.58
2023-03-03T07:59:39.876Z,28.13
2023-03-03T08:01:48.875Z,28.58
2023-03-03T08:03:54.681Z,30.17
2023-03-03T08:05:59.586Z,28.70
2023-03-03T08:08:29.507Z,30.10
2023-03-03T08:10:43.821Z,31.45
2023-03-03T08:12:48.622Z,28.52
2023-03-03T08:14:58.427Z,28.25
2023-03-03T08:17:04.127Z,27.48
2023-03-03T08:19:09.789Z,29.60
2023-03-03T08:21:16.684Z,31.50
2023-03-03T08:23:22.810Z,29.35
2023-03-03T08:25:27.658Z,31.35
2023-03-03T08:27:34.520Z,29.13
2023-03-03T08:29:39.384Z,31.48
2023-03-03T08:31:47.202Z,29.08
2023-03-03T08:33:52.249Z,29.98
2023-03-03T08:35:57.108Z,30.48
2023-03-03T08:38:02.159Z,29.42
2023-03-03T08:40:07.716Z,28.55
2023-03-03T08:42:14.179Z,28.55
2023-03-03T08:44:20.818Z,31.00
2023-03-03T08:46:26.208Z,28.25
2023-03-03T08:48:35.355Z,29.95
2023-03-03T08:50:41.272Z,29.30
2023-03-03T08:52:46.400Z,30.23
2023-03-03T08:56:55.907Z,28.52
2023-03-03T08:59:03.080Z,29.00
2023-03-03T09:01:08.396Z,28.30
2023-03-03T09:03:13.236Z,27.38
2023-03-03T09:05:21.845Z,26.95
2023-03-03T09:07:27.096Z,28.38
2023-03-03T09:11:36.887Z,27.23
2023-03-03T09:13:41.662Z,28.40
2023-03-03T09:15:46.822Z,27.35
2023-03-03T09:17:52.041Z,27.55
2023-03-03T09:20:02.880Z,28.83
2023-03-03T09:22:22.446Z,26.88
2023-03-03T09:24:29.375Z,28.52
2023-03-03T09:26:45.638Z,29.05
2023-03-03T09:28:50.516Z,24.38
2023-03-03T09:30:57.413Z,25.77
2023-03-03T09:33:02.411Z,26.75
2023-03-03T09:35:39.101Z,26.10
2023-03-03T09:39:53.927Z,26.60
2023-03-03T09:42:37.184Z,27.67
2023-03-03T09:45:11.779Z,23.85
2023-03-03T09:47:33.297Z,27.73
2023-03-03T09:49:42.118Z,27.73
2023-03-03T09:52:10.351Z,26.05
2023-03-03T09:54:29.598Z,27.27
2023-03-03T09:56:37.589Z,24.55
2023-03-03T09:58:57.080Z,23.42
2023-03-03T10:01:14.948Z,26.67
2023-03-03T10:03:48.382Z,24.42
2023-03-03T10:06:01.973Z,27.50
2023-03-03T10:08:24.320Z,26.55
2023-03-03T10:10:56.395Z,25.88
2023-03-03T10:13:16.267Z,24.58
2023-03-03T10:15:35.953Z,25.10
2023-03-03T10:17:52.359Z,25.27
2023-03-03T10:20:07.845Z,24.45
2023-03-03T10:22:24.471Z,21.42
2023-03-03T10:24:33.745Z,23.60
2023-03-03T10:27:13.888Z,22.90
2023-03-03T10:29:37.183Z,24.58
2023-03-03T10:31:57.481Z,24.23
2023-03-03T10:34:09.354Z,23.67
2023-03-03T10:36:30.384Z,24.67
2023-03-03T10:38:47.675Z,22.38
2023-03-03T10:41:04.310Z,24.80
2023-03-03T10:43:31.441Z,23.75
2023-03-03T10:46:10.448Z,24.38
2023-03-03T10:48:34.721Z,23.50
2023-03-03T10:50:52.528Z,22.42
2023-03-03T10:53:06.336Z,25.77
2023-03-03T10:55:29.774Z,23.02
2023-03-03T10:57:42.797Z,23.17
2023-03-03T11:00:02.611Z,23.05
2023-03-03T11:02:19.084Z,22.98
2023-03-03T11:05:02.393Z,21.55
2023-03-03T11:07:13.102Z,23.35
2023-03-03T11:09:40.960Z,23.50
2023-03-03T11:11:55.635Z,21.38
2023-03-03T11:14:06.861Z,21.98
2023-03-03T11:16:33.532Z,22.52
2023-03-03T11:18:53.818Z,23.13
2023-03-03T11:21:09.252Z,21.10
2023-03-03T11:23:37.589Z,20.92
2023-03-03T11:25:47.172Z,23.20
2023-03-03T11:28:28.267Z,19.67
2023-03-03T11:31:01.902Z,20.40
2023-03-03T11:33:15.080Z,21.30
2023-03-03T11:35:29.487Z,21.30
2023-03-03T11:37:42.853Z,19.02
2023-03-03T11:39:48.293Z,20.20
2023-03-03T11:42:04.902Z,19.98
2023-03-03T11:44:21.970Z,21.52
2023-03-03T11:46:33.266Z,19.60
2023-03-03T11:48:46.651Z,19.83
2023-03-03T11:51:01.515Z,19.85
2023-03-03T11:53:27.867Z,17.33
2023-03-03T11:55:38.994Z,20.40
2023-03-03T11:57:48.916Z,18.88
2023-03-03T12:00:09.545Z,19.33
2023-03-03T12:02:32.539Z,18.27
2023-03-03T12:04:42.262Z,17.35
2023-03-03T12:07:16.851Z,18.70
2023-03-03T12:09:39.617Z,18.30
2023-03-03T12:11:53.498Z,18.98
2023-03-03T12:14:05.425Z,17.23
2023-03-03T12:16:18.856Z,19.13
2023-03-03T12:18:54.139Z,18.05
2023-03-03T12:21:16.391Z,19.50
2023-03-03T12:23:43.039Z,18.35
2023-03-03T12:25:50.627Z,17.70
2023-03-03T12:28:01.190Z,17.92
2023-03-03T12:30:16.492Z,18.40
2023-03-03T12:32:35.362Z,18.40
2023-03-03T12:34:46.910Z,18.38
2023-03-03T12:37:09.736Z,16.85
2023-03-03T12:39:35.160Z,16.05
2023-03-03T12:41:48.552Z,17.88
2023-03-03T12:44:01.093Z,16.58
2023-03-03T12:46:17.442Z,19.17
2023-03-03T12:48:24.579Z,17.55
2023-03-03T12:50:40.501Z,17.60
2023-03-03T12:52:55.406Z,16.63
2023-03-03T12:55:21.561Z,18.83
2023-03-03T12:57:38.558Z,19.17
2023-03-03T12:59:51.921Z,19.27
2023-03-03T13:02:09.958Z,18.90
2023-03-03T13:04:31.668Z,16.95
2023-03-03T13:06:43.153Z,17.20
2023-03-03T13:09:04.563Z,16.02
2023-03-03T13:11:29.201Z,16.17
2023-03-03T13:13:41.192Z,16.52
2023-03-03T13:15:55.685Z,16.23
2023-03-03T13:18:15.986Z,16.48
2023-03-03T13:20:28.784Z,16.58
2023-03-03T13:22:40.011Z,17.00
2023-03-03T13:24:58.140Z,16.33
2023-03-03T13:27:10.964Z,15.90
2023-03-03T13:29:22.318Z,15.13
2023-03-03T13:31:32.749Z,16.02
2023-03-03T13:33:39.924Z,16.80
2023-03-03T13:35:48.097Z,17.60
2023-03-03T13:37:56.774Z,16.95
2023-03-03T13:40:04.607Z,17.23
2023-03-03T13:42:21.492Z,17.00
2023-03-03T13:44:31.768Z,17.60
2023-03-03T13:46:43.502Z,16.52
2023-03-03T13:49:13.409Z,16.85
2023-03-03T13:51:28.553Z,17.05
2023-03-03T13:53:46.553Z,15.88
2023-03-03T13:55:59.795Z,17.65
2023-03-03T13:58:16.673Z,16.38
2023-03-03T14:00:30.097Z,14.05
2023-03-03T14:02:57.114Z,16.17
2023-03-03T14:05:06.206Z,16.38
2023-03-03T14:07:24.357Z,14.35
2023-03-03T14:09:52.249Z,16.55
2023-03-03T14:12:06.760Z,16.15
2023-03-03T14:14:25.088Z,17.08
2023-03-03T14:16:42.238Z,16.35
2023-03-03T14:18:56.876Z,15.38
2023-03-03T14:21:10.695Z,13.98
2023-03-03T14:23:20.077Z,16.33
2023-03-03T14:25:24.907Z,17.67
2023-03-03T14:27:31.536Z,14.90
2023-03-03T14:29:38.939Z,15.38
2023-03-03T14:31:45.819Z,14.05
2023-03-03T14:34:02.235Z,15.65
2023-03-03T14:36:16.376Z,14.57
2023-03-03T14:38:23.209Z,15.48
2023-03-03T14:40:34.201Z,16.08
2023-03-03T14:42:48.839Z,16.55
2023-03-03T14:44:59.395Z,15.35
2023-03-03T14:47:08.719Z,14.68
2023-03-03T14:49:18.703Z,15.68
2023-03-03T14:51:29.208Z,14.80
2023-03-03T14:53:37.773Z,15.45
2023-03-03T14:55:44.687Z,13.23
2023-03-03T14:57:51.395Z,14.75
2023-03-03T15:00:06.974Z,14.80
2023-03-03T15:02:35.075Z,14.90
2023-03-03T15:04:41.294Z,13.45
2023-03-03T15:06:48.286Z,12.98
2023-03-03T15:08:53.240Z,12.63
2023-03-03T15:10:59.996Z,11.25
2023-03-03T15:13:35.707Z,11.93
2023-03-03T15:15:55.236Z,13.15
2023-03-03T15:18:03.610Z,12.88
2023-03-03T15:20:25.437Z,14.48
2023-03-03T15:22:51.644Z,12.63
2023-03-03T15:25:03.960Z,12.93
2023-03-03T15:27:15.207Z,13.13
2023-03-03T15:29:25.533Z,12.50
2023-03-03T15:31:42.460Z,13.98
2023-03-03T15:33:52.945Z,13.15
2023-03-03T15:36:06.422Z,12.23
2023-03-03T15:38:24.503Z,13.45
2023-03-03T15:40:31.584Z,12.27
2023-03-03T15:42:40.056Z,13.00
2023-03-03T15:44:58.652Z,11.52
2023-03-03T15:47:20.993Z,11.38
2023-03-03T15:49:47.283Z,11.75
2023-03-03T15:54:33.042Z,11.60
2023-03-03T15:56:44.037Z,10.88
2023-03-03T15:59:16.721Z,12.10
2023-03-03T16:01:30.079Z,14.27
2023-03-03T16:03:45.785Z,13.55
2023-03-03T16:05:56.586Z,11.65
2023-03-03T16:08:06.288Z,12.32
2023-03-03T16:10:22.794Z,12.40
2023-03-03T16:12:39.269Z,11.80
2023-03-03T16:15:01.829Z,12.65
2023-03-03T16:17:18.690Z,14.88
2023-03-03T16:19:38.758Z,12.00
2023-03-03T16:22:10.322Z,10.73
2023-03-03T16:24:26.921Z,10.85
2023-03-03T16:26:42.937Z,11.35
2023-03-03T16:29:03.840Z,12.00
2023-03-03T16:31:14.412Z,10.00
2023-03-03T16:33:25.391Z,11.05
2023-03-03T16:35:38.668Z,11.90
2023-03-03T16:37:56.688Z,10.07
2023-03-03T16:40:12.108Z,9.13
2023-03-03T16:42:25.346Z,9.65
2023-03-03T16:44:42.463Z,10.32
2023-03-03T16:46:50.580Z,9.18
2023-03-03T16:49:06.249Z,9.52
2023-03-03T16:51:30.089Z,9.07
2023-03-03T16:53:49.268Z,8.23
2023-03-03T16:56:04.510Z,6.22
2023-03-03T16:58:23.713Z,7.78
2023-03-03T17:00:32.637Z,7.20
2023-03-03T17:03:06.117Z,6.38
2023-03-03T17:05:23.501Z,5.78
2023-03-03T17:07:44.617Z,5.50
2023-03-03T17:10:05.559Z,5.30
2023-03-03T17:12:25.918Z,7.28
2023-03-03T17:14:53.281Z,7.72
2023-03-03T17:17:02.620Z,6.70
2023-03-03T17:19:24.053Z,8.25
2023-03-03T17:21:40.257Z,5.53
2023-03-03T17:23:58.008Z,4.45
2023-03-03T17:26:14.705Z,4.28
2023-03-03T17:28:33.511Z,4.20
2023-03-03T17:30:45.371Z,5.03
2023-03-03T17:33:16.833Z,5.03
2023-03-03T17:35:34.041Z,5.10
2023-03-03T17:37:46.672Z,5.60
2023-03-03T17:40:16.769Z,4.80
2023-03-03T17:42:28.910Z,4.68
2023-03-03T17:44:40.837Z,6.07
2023-03-03T17:46:51.578Z,4.78
2023-03-03T17:49:12.143Z,6.07
2023-03-03T17:51:27.669Z,5.20
2023-03-03T17:53:44.424Z,6.22
2023-03-03T17:56:10.243Z,7.45
2023-03-03T17:58:33.077Z,8.65
2023-03-03T18:00:51.920Z,8.27
2023-03-03T18:03:29.916Z,7.07
2023-03-03T18:05:47.816Z,7.22
2023-03-03T18:08:06.079Z,6.72
2023-03-03T18:10:52.413Z,7.38
2023-03-03T18:13:08.624Z,8.43
2023-03-03T18:15:33.851Z,11.15
2023-03-03T18:17:47.676Z,7.88
2023-03-03T18:20:07.290Z,7.82
2023-03-03T18:22:17.153Z,8.15
2023-03-03T18:24:38.225Z,8.35
2023-03-03T18:26:44.456Z,7.28
2023-03-03T18:28:53.739Z,7.20
2023-03-03T18:31:02.877Z,6.75
2023-03-03T18:33:16.365Z,6.50
2023-03-03T18:35:30.772Z,6.30
2023-03-03T18:37:45.230Z,7.05
2023-03-03T18:39:52.009Z,6.50
2023-03-03T18:42:14.008Z,7.30
2023-03-03T18:44:33.068Z,7.13
2023-03-03T18:47:01.909Z,6.90
2023-03-03T18:49:08.426Z,7.97
2023-03-03T18:51:13.239Z,8.43
2023-03-03T18:53:28.758Z,8.98
2023-03-03T18:55:43.343Z,10.07
2023-03-03T18:58:19.279Z,21.20
2023-03-03T19:00:32.159Z,10.77
2023-03-03T19:02:46.465Z,9.70
2023-03-03T19:04:56.930Z,9.07
2023-03-03T19:07:27.052Z,8.90
2023-03-03T19:09:52.559Z,10.48
2023-03-03T19:11:58.678Z,10.30
2023-03-03T19:14:25.729Z,9.25
2023-03-03T19:16:41.971Z,9.43
2023-03-03T19:19:03.191Z,9.10
2023-03-03T19:21:10.430Z,9.55
2023-03-03T19:23:21.299Z,9.77
2023-03-03T19:25:32.468Z,10.50
2023-03-03T19:27:44.115Z,11.25
2023-03-03T19:30:10.185Z,11.18
2023-03-03T19:32:30.671Z,11.05
2023-03-03T19:34:46.031Z,11.02
2023-03-03T19:37:03.790Z,9.65
2023-03-03T19:39:40.772Z,10.43
2023-03-03T19:41:59.672Z,10.68
2023-03-03T19:44:16.767Z,11.98
2023-03-03T19:46:36.625Z,10.13
2023-03-03T19:48:52.751Z,11.60
2023-03-03T19:51:09.278Z,12.80
2023-03-03T19:53:25.367Z,12.93
2023-03-03T19:55:41.342Z,11.60
2023-03-03T20:00:03.233Z,9.85
2023-03-03T20:02:39.661Z,11.27
2023-03-03T20:05:00.399Z,10.07
2023-03-03T20:07:15.969Z,11.02
2023-03-03T20:09:35.248Z,10.75
2023-03-03T20:11:56.746Z,10.32
2023-03-03T20:14:09.584Z,11.75
2023-03-03T20:16:27.900Z,12.32
2023-03-03T20:19:01.608Z,12.32
2023-03-03T20:21:26.275Z,13.05
2023-03-03T20:23:36.718Z,12.20
2023-03-03T20:25:49.237Z,11.68
2023-03-03T20:28:03.785Z,11.80
2023-03-03T20:30:16.523Z,15.35
2023-03-03T20:32:33.003Z,13.55
2023-03-03T20:34:48.574Z,13.75
2023-03-03T20:37:05.994Z,14.10
2023-03-03T20:39:16.720Z,13.50
2023-03-03T20:41:34.507Z,12.95
2023-03-03T20:43:54.845Z,15.57
2023-03-03T20:46:09.896Z,13.48
2023-03-03T20:48:28.441Z,14.05
2023-03-03T20:50:43.380Z,14.48
2023-03-03T20:53:02.512Z,14.93
2023-03-03T20:55:17.327Z,13.70
2023-03-03T20:57:33.928Z,13.93
2023-03-03T20:59:45.865Z,14.55
2023-03-03T21:01:56.458Z,14.75
2023-03-03T21:04:23.241Z,12.80
2023-03-03T21:06:41.065Z,14.90
2023-03-03T21:08:53.441Z,13.43
2023-03-03T21:11:02.085Z,15.05
2023-03-03T21:13:29.528Z,14.40
2023-03-03T21:15:37.164Z,14.45
2023-03-03T21:17:42.651Z,13.77
2023-03-03T21:19:47.464Z,14.05
2023-03-03T21:21:52.647Z,13.98
2023-03-03T21:26:04.589Z,14.27
2023-03-03T21:28:21.524Z,13.32
2023-03-03T21:30:26.425Z,15.32
2023-03-03T21:32:40.566Z,15.43
2023-03-03T21:34:45.456Z,15.00
2023-03-03T21:36:51.565Z,14.27
2023-03-03T21:39:02.199Z,14.80
2023-03-03T21:41:07.686Z,14.82
2023-03-03T21:43:39.306Z,14.77
2023-03-03T21:45:46.405Z,16.33
2023-03-03T21:47:51.330Z,14.68
2023-03-03T21:49:56.131Z,14.75
2023-03-03T21:52:02.102Z,15.30
2023-03-03T21:54:09.556Z,15.13
2023-03-03T21:56:16.059Z,14.60
2023-03-03T21:58:21.204Z,14.23
2023-03-03T22:00:26.538Z,15.60
2023-03-03T22:02:33.861Z,14.18
2023-03-03T22:04:39.164Z,13.07
2023-03-03T22:08:48.486Z,13.02
2023-03-03T22:10:56.638Z,13.48
2023-03-03T22:13:01.666Z,14.32
2023-03-03T22:15:07.088Z,13.93
2023-03-03T22:17:12.051Z,13.63
2023-03-03T22:19:16.910Z,12.40
2023-03-03T22:21:21.716Z,12.95
2023-03-03T22:23:26.509Z,13.27
2023-03-03T22:25:31.484Z,14.10
2023-03-03T22:27:39.002Z,13.10
2023-03-03T22:29:43.831Z,13.02
2023-03-03T22:31:48.607Z,12.65
2023-03-03T22:33:53.968Z,12.32
2023-03-03T22:38:03.570Z,14.23
2023-03-03T22:40:09.612Z,13.18
2023-03-03T22:42:17.410Z,12.60
2023-03-03T22:44:24.895Z,13.35
2023-03-03T22:46:29.840Z,12.85
2023-03-03T22:48:35.538Z,13.13
2023-03-03T22:50:42.893Z,14.07
2023-03-03T22:52:48.284Z,13.90
2023-03-03T22:54:53.080Z,14.38
2023-03-03T22:56:58.056Z,14.25
2023-03-03T22:59:02.846Z,15.05
2023-03-03T23:01:10.792Z,14.15
2023-03-03T23:03:16.106Z,13.60
2023-03-03T23:05:21.168Z,13.48
2023-03-03T23:07:26.502Z,13.95
2023-03-03T23:09:34.283Z,13.43
2023-03-03T23:11:39.075Z,13.95
2023-03-03T23:13:43.923Z,13.38
2023-03-03T23:15:48.817Z,13.07
2023-03-03T23:17:56.331Z,13.27
2023-03-03T23:20:01.053Z,13.25
2023-03-03T23:22:05.812Z,15.65
2023-03-03T23:24:11.217Z,14.15
2023-03-03T23:26:16.007Z,14.18
2023-03-03T23:28:20.819Z,13.90
2023-03-03T23:30:26.259Z,13.50
2023-03-03T23:32:32.285Z,13.70
2023-03-03T23:34:39.736Z,14.15
2023-03-03T23:36:44.626Z,13.55
2023-03-03T23:38:49.508Z,13.77
2023-03-03T23:40:54.324Z,12.50
2023-03-03T23:42:59.236Z,11.52
2023-03-03T23:45:04.090Z,11.50
2023-03-03T23:47:09.990Z,12.00
2023-03-03T23:49:14.774Z,11.77
2023-03-03T23:51:22.155Z,13.25
2023-03-03T23:53:26.910Z,12.63
2023-03-03T23:55:31.771Z,11.98
2023-03-03T23:57:36.648Z,11.77
2023-03-03T23:59:41.452Z,12.00
